createdAt,value
2018-01-13T00:02:29.729Z,5.0
2018-01-13T00:19:05.490Z,5.0
2018-01-13T00:35:41.298Z,5.0
2018-01-13T00:52:16.980Z,4.6
2018-01-13T01:08:52.663Z,4.6
2018-01-13T01:25:28.248Z,4.6
2018-01-13T01:42:03.781Z,4.6
2018-01-13T01:58:39.809Z,4.6
2018-01-13T02:15:14.858Z,4.6
2018-01-13T02:31:50.453Z,4.6
2018-01-13T03:05:01.492Z,4.3
2018-01-13T03:21:37.028Z,4.3
2018-01-13T03:38:12.486Z,4.3
2018-01-13T03:54:48.060Z,4.6
2018-01-13T04:11:23.555Z,4.3
2018-01-13T04:44:34.690Z,4.3
2018-01-13T05:01:10.285Z,4.6
2018-01-13T05:17:46.089Z,4.6
2018-01-13T05:34:21.537Z,4.6
2018-01-13T05:50:57.196Z,4.6
2018-01-13T06:07:32.960Z,4.6
2018-01-13T06:24:08.647Z,4.6
2018-01-13T06:40:44.341Z,4.6
2018-01-13T06:57:20.123Z,4.6
2018-01-13T07:13:55.974Z,5.0
2018-01-13T07:30:31.762Z,5.0
2018-01-13T07:47:07.680Z,5.0
2018-01-13T08:03:43.570Z,5.0
2018-01-13T08:20:19.456Z,5.0
2018-01-13T08:36:55.488Z,5.3
2018-01-13T08:53:31.516Z,5.3
2018-01-13T09:10:07.726Z,5.3
2018-01-13T09:26:43.910Z,5.6
2018-01-13T09:43:20.388Z,5.9
2018-01-13T09:59:56.876Z,5.9
2018-01-13T10:16:33.492Z,5.9
2018-01-13T10:33:10.306Z,6.6
2018-01-13T10:49:47.056Z,6.6
2018-01-13T11:06:24.135Z,6.9
2018-01-13T11:23:01.180Z,6.9
2018-01-13T11:39:38.270Z,6.9
2018-01-13T11:56:15.356Z,6.9
2018-01-13T12:12:52.411Z,6.9
2018-01-13T12:29:29.933Z,6.9
2018-01-13T12:46:07.403Z,6.9
2018-01-13T13:02:44.976Z,6.9
2018-01-13T13:19:22.423Z,6.9
2018-01-13T13:35:59.768Z,6.6
2018-01-13T13:52:36.929Z,6.6
2018-01-13T14:09:14.185Z,6.6
2018-01-13T14:25:51.279Z,6.6
2018-01-13T14:42:28.318Z,6.2
2018-01-13T14:59:05.287Z,6.2
2018-01-13T15:15:42.181Z,6.2
2018-01-13T15:32:20.876Z,5.9
2018-01-13T15:48:55.734Z,5.9
2018-01-13T16:05:32.373Z,5.9
2018-01-13T16:22:09.121Z,5.6
2018-01-13T16:38:45.048Z,5.6
2018-01-13T16:55:20.986Z,5.3
2018-01-13T17:11:56.891Z,5.3
2018-01-13T17:28:32.755Z,5.3
2018-01-13T17:45:08.898Z,5.3
2018-01-13T18:01:44.526Z,5.3
2018-01-13T18:18:20.304Z,5.3
2018-01-13T18:34:55.962Z,5.3
2018-01-13T18:51:31.681Z,5.0
2018-01-13T19:08:07.458Z,5.0
2018-01-13T19:24:43.004Z,5.0
2018-01-13T19:41:18.425Z,5.0
2018-01-13T19:57:53.916Z,5.0
2018-01-13T20:14:29.397Z,4.6
2018-01-13T20:47:40.985Z,4.6
2018-01-13T21:04:15.779Z,4.6
2018-01-13T21:20:51.097Z,4.3
2018-01-13T21:37:26.342Z,4.3
2018-01-13T21:54:01.727Z,4.3
2018-01-13T22:10:36.856Z,4.3
2018-01-13T22:27:12.105Z,4.3
2018-01-13T22:43:47.184Z,4.0
2018-01-13T23:00:22.094Z,3.7
2018-01-13T23:16:56.979Z,3.7
2018-01-13T23:33:32.054Z,3.7
2018-01-13T23:50:06.549Z,3.7
